Hokuo Maru — JD3726 — position and weather

sailwx.info

Track history (hours):
 
Tides and Currents Weather Stations Pressure Air Temp Water Temp Dewpoint Dewpoint Depression Visibility Wind Speed Wind Dir Waves Ship Positions

Hokuo Maru

Last reported at 2018-May-15 07:45 UTC. Time now 2018-May-20 15:30 UTC.
Position N 41°50' E 141°36'.

Length 173 m; draft 7 m.

Type: Cargo ship. MMSI: 431001040.

Date/timePositionNaut miles runAvg speedWind from/ knotsBaromVisibWave heightAir tempDewpointWater temp
2018-May-15 07:45N 41°50' E 141°36'718.8
2018-May-15 07:21N 41°42' E 141°36'918.4
2018-May-15 06:51N 41°33' E 141°35'718.3
2018-May-15 06:29N 41°26' E 141°35'1518.9
2018-May-15 05:41N 41°11' E 141°36'419.9
2018-May-15 05:30N 41°08' E 141°36'1020.3
2018-May-15 05:00N 40°57' E 141°37'35810.2
2018-May-13 18:01N 35°04' E 140°31'220.0
2018-May-13 17:57N 35°02' E 140°29'1120.4
2018-May-13 17:23N 34°56' E 140°17'719.7
2018-May-13 17:00N 34°53' E 140°10'1920.3
2018-May-13 16:06N 34°45' E 139°49'1319.9
2018-May-13 15:28N 34°41' E 139°35'1422.1
2018-May-13 14:51N 34°37' E 139°19'721.6
2018-May-13 14:30N 34°34' E 139°10'1020.5
2018-May-13 14:00N 34°33' E 138°58'1120.1
2018-May-13 13:29N 34°34' E 138°45'918.6
2018-May-13 13:00N 34°42' E 138°41'918.3
2018-May-13 12:30N 34°51' E 138°37'918.2
2018-May-13 12:01N 34°60' E 138°34'4 7.0
2018-May-13 11:30N 35°02' E 138°31'0 0.0
2018-May-13 10:58N 35°02' E 138°31'0 0.0
2018-May-13 10:28N 35°02' E 138°31'0 0.0
2018-May-13 09:58N 35°02' E 138°31'0 0.7
2018-May-13 09:30N 35°02' E 138°31'510.7
2018-May-13 09:01N 34°57' E 138°32'1020.4
2018-May-13 08:30N 34°47' E 138°29'1019.9
2018-May-13 08:01N 34°38' E 138°23'1220.0
2018-May-13 07:24N 34°32' E 138°10'1320.1
2018-May-13 06:44N 34°31' E 137°54'821.1
2018-May-13 06:23N 34°30' E 137°45'29319.6
2018-May-12 15:28N 33°12' E 132°05'1020.9
2018-May-12 14:58N 33°18' E 131°55'818.1
2018-May-12 14:30N 33°16' E 131°45'1 2.7
2018-May-12 14:00N 33°15' E 131°45'0 0.0
2018-May-12 13:25N 33°15' E 131°45'0 0.0
2018-May-12 12:49N 33°15' E 131°45'0 0.0
2018-May-12 12:19N 33°15' E 131°45'0 0.0
2018-May-12 11:58N 33°15' E 131°45'0 0.0
2018-May-12 11:28N 33°15' E 131°45'0 0.0
2018-May-12 10:55N 33°15' E 131°45'0 0.0
2018-May-12 10:25N 33°15' E 131°45'0 0.0
2018-May-12 09:58N 33°15' E 131°45'0 0.0
2018-May-12 09:28N 33°15' E 131°45'1 1.1
2018-May-12 09:00N 33°15' E 131°44'713.3
2018-May-12 08:30N 33°18' E 131°52'1018.5
2018-May-12 07:58N 33°14' E 132°03'27319.2
2018-May-11 17:45N 34°05' E 137°25'621.0
2018-May-11 17:29N 34°08' E 137°31'1220.8
2018-May-11 16:54N 34°14' E 137°44'1321.3
2018-May-11 16:18N 34°21' E 137°57'721.6
2018-May-11 16:00N 34°24' E 138°04'1121.6
2018-May-11 15:30N 34°29' E 138°15'1120.9
2018-May-11 14:58N 34°38' E 138°23'1022.4
2018-May-11 14:30N 34°48' E 138°28'1020.9
2018-May-11 14:01N 34°58' E 138°32'5 8.6
2018-May-11 13:28N 35°02' E 138°31'0 0.0
2018-May-11 12:59N 35°02' E 138°31'0 0.0
2018-May-11 12:29N 35°02' E 138°31'0 0.0
2018-May-11 11:59N 35°02' E 138°31'0 0.0
2018-May-11 11:29N 35°02' E 138°31'0 0.0
2018-May-11 10:59N 35°02' E 138°31'0 0.0
2018-May-11 10:29N 35°02' E 138°31'0 0.0
2018-May-11 09:59N 35°02' E 138°31'0 0.0
2018-May-11 09:30N 35°02' E 138°31'4 8.1
2018-May-11 09:00N 34°59' E 138°33'916.9
2018-May-11 08:30N 34°50' E 138°30'1019.3
2018-May-11 08:00N 34°41' E 138°27'918.2
2018-May-11 07:30N 34°34' E 138°20'1218.7
2018-May-11 06:51N 34°33' E 138°05'818.9
2018-May-11 06:27N 34°31' E 137°56'919.1
2018-May-11 06:00N 34°29' E 137°46'1119.6
2018-May-11 05:25N 34°25' E 137°33'919.9
2018-May-11 04:59N 34°23' E 137°23'3919.9
2018-May-11 03:00N 33°60' E 136°44'8819.3
2018-May-10 22:26N 33°17' E 135°11'9321.1
2018-May-10 18:00N 32°49' E 133°24'6917.7
2018-May-10 14:08N 33°11' E 132°07'622.6
2018-May-10 13:52N 33°15' E 132°02'920.6
2018-May-10 13:25N 33°18' E 131°51'615.6
2018-May-10 13:00N 33°16' E 131°44'1 1.2
2018-May-10 12:25N 33°15' E 131°45'0 0.0
2018-May-10 11:22N 33°15' E 131°45'0 0.0
2018-May-10 10:52N 33°15' E 131°45'0 0.0
2018-May-10 10:28N 33°15' E 131°45'0 0.0
2018-May-10 09:58N 33°15' E 131°45'0 0.7
2018-May-10 09:28N 33°15' E 131°44'611.7
2018-May-10 09:00N 33°18' E 131°50'1217.2
2018-May-10 08:18N 33°13' E 132°03'26718.0
2018-May-09 17:27N 34°12' E 137°16'3820.2
2018-May-09 15:34N 34°26' E 137°59'220.5
2018-May-09 15:28N 34°27' E 138°01'1421.6
2018-May-09 14:47N 34°32' E 138°18'618.3
2018-May-09 14:28N 34°36' E 138°23'1021.7
2018-May-09 14:00N 34°46' E 138°26'1121.5
2018-May-09 13:30N 34°56' E 138°31'611.4
2018-May-09 13:00N 35°02' E 138°31'0 0.7
2018-May-09 12:29N 35°02' E 138°31'0 0.0
2018-May-09 12:00N 35°02' E 138°31'0 0.0
2018-May-09 11:30N 35°02' E 138°31'0 0.0
2018-May-09 11:00N 35°02' E 138°31'0 0.0
2018-May-09 10:30N 35°02' E 138°31'0 0.0
2018-May-09 10:00N 35°02' E 138°31'1 1.8
2018-May-09 09:30N 35°02' E 138°31'510.9
2018-May-09 09:01N 34°56' E 138°32'1019.8
2018-May-09 08:30N 34°47' E 138°28'1020.0
2018-May-09 08:00N 34°39' E 138°21'1018.7
2018-May-09 07:28N 34°33' E 138°10'919.7
2018-May-09 06:59N 34°31' E 137°59'24820.4
2018-May-08 18:51N 32°49' E 133°28'1121.1
2018-May-08 18:19N 32°45' E 133°15'7018.4
2018-May-08 14:31N 33°17' E 132°01'021.7
2018-May-08 14:30N 33°17' E 132°01'816.8
2018-May-08 14:00N 33°17' E 131°51'611.9
2018-May-08 13:30N 33°15' E 131°44'0 0.8
2018-May-08 13:00N 33°15' E 131°45'0 0.0
2018-May-08 12:30N 33°15' E 131°45'0 0.0
2018-May-08 11:57N 33°15' E 131°45'0 0.0
2018-May-08 11:30N 33°15' E 131°45'0 0.0
2018-May-08 10:57N 33°15' E 131°45'0 0.0
2018-May-08 10:30N 33°15' E 131°45'0 0.0
2018-May-08 10:00N 33°15' E 131°45'0 0.0
2018-May-08 09:30N 33°15' E 131°45'0 0.0
2018-May-08 08:57N 33°15' E 131°45'0 0.0
2018-May-08 08:21N 33°15' E 131°45'0 0.0
2018-May-08 07:57N 33°15' E 131°45'0 0.0
2018-May-08 07:30N 33°15' E 131°45'0 0.0
2018-May-08 07:00N 33°15' E 131°45'0 0.0
2018-May-08 06:30N 33°15' E 131°45'0 0.0
2018-May-08 06:00N 33°15' E 131°45'0 0.0
2018-May-08 05:27N 33°15' E 131°45'0 0.0
2018-May-08 05:00N 33°15' E 131°45'0 0.0
2018-May-08 04:30N 33°15' E 131°45'0 0.0
2018-May-08 04:00N 33°15' E 131°45'0 0.0
2018-May-08 03:30N 33°15' E 131°45'0 0.0
2018-May-08 03:00N 33°15' E 131°45'0 0.0
2018-May-08 02:30N 33°15' E 131°45'0 0.0
2018-May-08 02:00N 33°15' E 131°45'1 1.5
2018-May-08 01:30N 33°16' E 131°44'1 1.5
2018-May-08 01:00N 33°16' E 131°45'0 0.0
2018-May-08 00:29N 33°16' E 131°45'0 0.0
2018-May-07 23:53N 33°16' E 131°45'0 0.0
2018-May-07 23:26N 33°16' E 131°45'0 0.0
2018-May-07 22:59N 33°16' E 131°45'0 0.0
2018-May-07 22:29N 33°16' E 131°45'0 0.0
2018-May-07 21:58N 33°16' E 131°45'0 0.0
2018-May-07 21:29N 33°16' E 131°45'0 0.0
2018-May-07 20:56N 33°16' E 131°45'0 0.0
2018-May-07 20:29N 33°16' E 131°45'0 0.0
2018-May-07 19:59N 33°16' E 131°45'0 0.0
2018-May-07 19:23N 33°16' E 131°45'0 0.0
2018-May-07 18:55N 33°16' E 131°45'0 0.0
2018-May-07 18:26N 33°16' E 131°45'0 0.0
2018-May-07 17:56N 33°16' E 131°45'0 0.0
2018-May-07 17:26N 33°16' E 131°45'0 0.0
2018-May-07 16:59N 33°16' E 131°45'0 0.0
2018-May-07 16:29N 33°16' E 131°45'0 0.0
2018-May-07 15:50N 33°16' E 131°45'0 0.0
2018-May-07 15:29N 33°16' E 131°45'0 0.0
2018-May-07 14:55N 33°16' E 131°45'0 0.0
2018-May-07 14:25N 33°16' E 131°45'0 0.0
2018-May-07 13:59N 33°16' E 131°45'0 0.0
2018-May-07 13:28N 33°16' E 131°45'0 0.1
2018-May-07 12:56N 33°16' E 131°45'0 0.1
2018-May-07 12:25N 33°16' E 131°45'0 0.0
2018-May-07 11:59N 33°16' E 131°45'0 0.0
2018-May-07 11:29N 33°16' E 131°45'0 0.0
2018-May-07 10:59N 33°16' E 131°45'0 0.0
2018-May-07 10:29N 33°16' E 131°45'0 0.1
2018-May-07 09:49N 33°16' E 131°45'0 0.0
2018-May-07 09:29N 33°16' E 131°45'0 0.0
2018-May-07 08:55N 33°16' E 131°45'0 0.0
2018-May-07 08:25N 33°16' E 131°45'0 0.0
2018-May-07 07:58N 33°16' E 131°45'0 0.0
2018-May-07 07:25N 33°16' E 131°45'0 0.0
2018-May-07 06:58N 33°16' E 131°45'0 0.0
2018-May-07 06:20N 33°16' E 131°45'0 0.0
2018-May-07 05:55N 33°16' E 131°45'0 0.0
2018-May-07 05:26N 33°16' E 131°45'0 0.1
2018-May-07 04:55N 33°16' E 131°45'0 0.1
2018-May-07 04:26N 33°16' E 131°45'0 0.1
2018-May-07 03:55N 33°16' E 131°45'0 0.0
2018-May-07 03:28N 33°16' E 131°45'0 0.0
2018-May-07 02:55N 33°16' E 131°45'0 0.0
2018-May-07 02:28N 33°16' E 131°45'0 0.0
2018-May-07 01:58N 33°16' E 131°45'0 0.0
2018-May-07 01:25N 33°16' E 131°45'0 0.0
2018-May-07 00:53N 33°16' E 131°45'0 0.0
2018-May-07 00:28N 33°16' E 131°45'0 0.0
2018-May-06 23:59N 33°16' E 131°45'0 0.0
2018-May-06 23:25N 33°16' E 131°45'0 0.1
2018-May-06 22:58N 33°16' E 131°45'0 0.0
2018-May-06 22:28N 33°16' E 131°45'0 0.0
2018-May-06 21:56N 33°16' E 131°45'0 0.0
2018-May-06 21:28N 33°16' E 131°45'0 0.0
2018-May-06 20:58N 33°16' E 131°45'0 0.0
2018-May-06 20:28N 33°16' E 131°45'0 0.0
2018-May-06 19:46N 33°16' E 131°45'0 0.0
2018-May-06 19:28N 33°16' E 131°45'0 0.0
2018-May-06 18:58N 33°16' E 131°45'0 0.0
2018-May-06 18:28N 33°16' E 131°45'0 0.0
2018-May-06 17:58N 33°16' E 131°45'0 0.0
2018-May-06 17:25N 33°16' E 131°45'0 0.0
2018-May-06 16:58N 33°16' E 131°45'0 0.1
2018-May-06 16:25N 33°16' E 131°45'0 0.1
2018-May-06 15:58N 33°16' E 131°45'0 0.0
2018-May-06 15:28N 33°16' E 131°45'0 0.1
2018-May-06 14:55N 33°16' E 131°45'0 0.0
2018-May-06 14:28N 33°16' E 131°45'0 0.0
2018-May-06 13:55N 33°16' E 131°45'0 0.0
2018-May-06 13:28N 33°16' E 131°45'0 0.0
2018-May-06 12:58N 33°16' E 131°45'0 0.0
2018-May-06 12:25N 33°16' E 131°45'0 0.0
2018-May-06 11:58N 33°16' E 131°45'0 0.0
2018-May-06 11:25N 33°16' E 131°45'0 0.0
2018-May-06 10:55N 33°16' E 131°45'0 0.0
2018-May-06 10:13N 33°16' E 131°45'0 0.0
2018-May-06 09:55N 33°16' E 131°45'0 0.0
2018-May-06 09:28N 33°16' E 131°45'0 0.0
2018-May-06 08:55N 33°16' E 131°45'0 0.0
2018-May-06 08:25N 33°16' E 131°45'0 0.0
2018-May-06 07:55N 33°16' E 131°45'0 0.0
2018-May-06 07:25N 33°16' E 131°45'0 0.0
2018-May-06 06:49N 33°16' E 131°45'0 0.0
2018-May-06 06:22N 33°16' E 131°45'0 0.0
2018-May-06 05:55N 33°16' E 131°45'0 0.0
2018-May-06 05:25N 33°16' E 131°45'0 0.0
2018-May-06 04:58N 33°16' E 131°45'0 0.0
2018-May-06 04:28N 33°16' E 131°45'0 0.0
2018-May-06 03:55N 33°16' E 131°45'0 0.0
2018-May-06 03:25N 33°16' E 131°45'0 0.0
2018-May-06 02:55N 33°16' E 131°45'0 0.0
2018-May-06 02:28N 33°16' E 131°45'0 0.0
2018-May-06 01:55N 33°16' E 131°45'0 0.0
2018-May-06 01:28N 33°16' E 131°45'0 0.0
2018-May-06 00:55N 33°16' E 131°45'0 0.0
2018-May-06 00:28N 33°16' E 131°45'0 0.1
2018-May-05 23:58N 33°16' E 131°45'0 0.0
2018-May-05 23:28N 33°16' E 131°45'0 0.0
2018-May-05 22:58N 33°16' E 131°45'0 0.0
2018-May-05 22:28N 33°16' E 131°45'0 0.0
2018-May-05 21:55N 33°16' E 131°45'0 0.0
2018-May-05 21:25N 33°16' E 131°45'0 0.0
2018-May-05 20:58N 33°16' E 131°45'0 0.0
2018-May-05 20:28N 33°16' E 131°45'0 0.0
2018-May-05 19:55N 33°16' E 131°45'0 0.0
2018-May-05 19:28N 33°16' E 131°45'0 0.0
2018-May-05 18:58N 33°16' E 131°45'0 0.0
2018-May-05 18:28N 33°16' E 131°45'0 0.0
2018-May-05 17:58N 33°16' E 131°45'0 0.1
2018-May-05 17:28N 33°16' E 131°45'0 0.0
2018-May-05 16:55N 33°16' E 131°45'0 0.0
2018-May-05 16:04N 33°16' E 131°45'0 0.0
2018-May-05 15:55N 33°16' E 131°45'0 0.0
2018-May-05 15:28N 33°16' E 131°45'0 0.0
2018-May-05 14:58N 33°16' E 131°45'0 0.0
2018-May-05 14:28N 33°16' E 131°45'0 0.0
2018-May-05 13:55N 33°16' E 131°45'0 0.0
2018-May-05 13:22N 33°16' E 131°45'0 0.0
2018-May-05 12:58N 33°16' E 131°45'0 0.1
2018-May-05 12:30N 33°16' E 131°45'1 1.9
2018-May-05 11:58N 33°15' E 131°45'0 0.0
2018-May-05 11:28N 33°15' E 131°45'0 0.0
2018-May-05 10:58N 33°15' E 131°45'0 0.0
2018-May-05 10:22N 33°15' E 131°45'0 0.0
2018-May-05 09:58N 33°15' E 131°45'0 0.0
2018-May-05 09:28N 33°15' E 131°45'0 0.0
2018-May-05 08:58N 33°15' E 131°45'0 0.0
2018-May-05 08:22N 33°15' E 131°45'0 0.0
2018-May-05 07:52N 33°15' E 131°45'  
Track history (hours):
 
Tides and Currents Weather Stations Pressure Air Temp Water Temp Dewpoint Dewpoint Depression Visibility Wind Speed Wind Dir Waves Ship Positions

Hokuo Maru

Last reported at 2018-May-15 07:45 UTC. Time now 2018-May-20 15:30 UTC.
Position N 41°50' E 141°36'.

Length 173 m; draft 7 m.

Type: Cargo ship. MMSI: 431001040.

Date/timePositionNaut miles runAvg speedWind from/ knotsBaromVisibWave heightAir tempDewpointWater temp
2018-May-15 07:45N 41°50' E 141°36'718.8
2018-May-15 07:21N 41°42' E 141°36'918.4
2018-May-15 06:51N 41°33' E 141°35'718.3
2018-May-15 06:29N 41°26' E 141°35'1518.9
2018-May-15 05:41N 41°11' E 141°36'419.9
2018-May-15 05:30N 41°08' E 141°36'1020.3
2018-May-15 05:00N 40°57' E 141°37'35810.2
2018-May-13 18:01N 35°04' E 140°31'220.0
2018-May-13 17:57N 35°02' E 140°29'1120.4
2018-May-13 17:23N 34°56' E 140°17'719.7
2018-May-13 17:00N 34°53' E 140°10'1920.3
2018-May-13 16:06N 34°45' E 139°49'1319.9
2018-May-13 15:28N 34°41' E 139°35'1422.1
2018-May-13 14:51N 34°37' E 139°19'721.6
2018-May-13 14:30N 34°34' E 139°10'1020.5
2018-May-13 14:00N 34°33' E 138°58'1120.1
2018-May-13 13:29N 34°34' E 138°45'918.6
2018-May-13 13:00N 34°42' E 138°41'918.3
2018-May-13 12:30N 34°51' E 138°37'918.2
2018-May-13 12:01N 34°60' E 138°34'4 7.0
2018-May-13 11:30N 35°02' E 138°31'0 0.0
2018-May-13 10:58N 35°02' E 138°31'0 0.0
2018-May-13 10:28N 35°02' E 138°31'0 0.0
2018-May-13 09:58N 35°02' E 138°31'0 0.7
2018-May-13 09:30N 35°02' E 138°31'510.7
2018-May-13 09:01N 34°57' E 138°32'1020.4
2018-May-13 08:30N 34°47' E 138°29'1019.9
2018-May-13 08:01N 34°38' E 138°23'1220.0
2018-May-13 07:24N 34°32' E 138°10'1320.1
2018-May-13 06:44N 34°31' E 137°54'821.1
2018-May-13 06:23N 34°30' E 137°45'29319.6
2018-May-12 15:28N 33°12' E 132°05'1020.9
2018-May-12 14:58N 33°18' E 131°55'818.1
2018-May-12 14:30N 33°16' E 131°45'1 2.7
2018-May-12 14:00N 33°15' E 131°45'0 0.0
2018-May-12 13:25N 33°15' E 131°45'0 0.0
2018-May-12 12:49N 33°15' E 131°45'0 0.0
2018-May-12 12:19N 33°15' E 131°45'0 0.0
2018-May-12 11:58N 33°15' E 131°45'0 0.0
2018-May-12 11:28N 33°15' E 131°45'0 0.0
2018-May-12 10:55N 33°15' E 131°45'0 0.0
2018-May-12 10:25N 33°15' E 131°45'0 0.0
2018-May-12 09:58N 33°15' E 131°45'0 0.0
2018-May-12 09:28N 33°15' E 131°45'1 1.1
2018-May-12 09:00N 33°15' E 131°44'713.3
2018-May-12 08:30N 33°18' E 131°52'1018.5
2018-May-12 07:58N 33°14' E 132°03'27319.2
2018-May-11 17:45N 34°05' E 137°25'621.0
2018-May-11 17:29N 34°08' E 137°31'1220.8
2018-May-11 16:54N 34°14' E 137°44'1321.3
2018-May-11 16:18N 34°21' E 137°57'721.6
2018-May-11 16:00N 34°24' E 138°04'1121.6
2018-May-11 15:30N 34°29' E 138°15'1120.9
2018-May-11 14:58N 34°38' E 138°23'1022.4
2018-May-11 14:30N 34°48' E 138°28'1020.9
2018-May-11 14:01N 34°58' E 138°32'5 8.6
2018-May-11 13:28N 35°02' E 138°31'0 0.0
2018-May-11 12:59N 35°02' E 138°31'0 0.0
2018-May-11 12:29N 35°02' E 138°31'0 0.0
2018-May-11 11:59N 35°02' E 138°31'0 0.0
2018-May-11 11:29N 35°02' E 138°31'0 0.0
2018-May-11 10:59N 35°02' E 138°31'0 0.0
2018-May-11 10:29N 35°02' E 138°31'0 0.0
2018-May-11 09:59N 35°02' E 138°31'0 0.0
2018-May-11 09:30N 35°02' E 138°31'4 8.1
2018-May-11 09:00N 34°59' E 138°33'916.9
2018-May-11 08:30N 34°50' E 138°30'1019.3
2018-May-11 08:00N 34°41' E 138°27'918.2
2018-May-11 07:30N 34°34' E 138°20'1218.7
2018-May-11 06:51N 34°33' E 138°05'818.9
2018-May-11 06:27N 34°31' E 137°56'919.1
2018-May-11 06:00N 34°29' E 137°46'1119.6
2018-May-11 05:25N 34°25' E 137°33'919.9
2018-May-11 04:59N 34°23' E 137°23'3919.9
2018-May-11 03:00N 33°60' E 136°44'8819.3
2018-May-10 22:26N 33°17' E 135°11'9321.1
2018-May-10 18:00N 32°49' E 133°24'6917.7
2018-May-10 14:08N 33°11' E 132°07'622.6
2018-May-10 13:52N 33°15' E 132°02'920.6
2018-May-10 13:25N 33°18' E 131°51'615.6
2018-May-10 13:00N 33°16' E 131°44'1 1.2
2018-May-10 12:25N 33°15' E 131°45'0 0.0
2018-May-10 11:22N 33°15' E 131°45'0 0.0
2018-May-10 10:52N 33°15' E 131°45'0 0.0
2018-May-10 10:28N 33°15' E 131°45'0 0.0
2018-May-10 09:58N 33°15' E 131°45'0 0.7
2018-May-10 09:28N 33°15' E 131°44'611.7
2018-May-10 09:00N 33°18' E 131°50'1217.2
2018-May-10 08:18N 33°13' E 132°03'26718.0
2018-May-09 17:27N 34°12' E 137°16'3820.2
2018-May-09 15:34N 34°26' E 137°59'220.5
2018-May-09 15:28N 34°27' E 138°01'1421.6
2018-May-09 14:47N 34°32' E 138°18'618.3
2018-May-09 14:28N 34°36' E 138°23'1021.7
2018-May-09 14:00N 34°46' E 138°26'1121.5
2018-May-09 13:30N 34°56' E 138°31'611.4
2018-May-09 13:00N 35°02' E 138°31'0 0.7
2018-May-09 12:29N 35°02' E 138°31'0 0.0
2018-May-09 12:00N 35°02' E 138°31'0 0.0
2018-May-09 11:30N 35°02' E 138°31'0 0.0
2018-May-09 11:00N 35°02' E 138°31'0 0.0
2018-May-09 10:30N 35°02' E 138°31'0 0.0
2018-May-09 10:00N 35°02' E 138°31'1 1.8
2018-May-09 09:30N 35°02' E 138°31'510.9
2018-May-09 09:01N 34°56' E 138°32'1019.8
2018-May-09 08:30N 34°47' E 138°28'1020.0
2018-May-09 08:00N 34°39' E 138°21'1018.7
2018-May-09 07:28N 34°33' E 138°10'919.7
2018-May-09 06:59N 34°31' E 137°59'24820.4
2018-May-08 18:51N 32°49' E 133°28'1121.1
2018-May-08 18:19N 32°45' E 133°15'7018.4
2018-May-08 14:31N 33°17' E 132°01'021.7
2018-May-08 14:30N 33°17' E 132°01'816.8
2018-May-08 14:00N 33°17' E 131°51'611.9
2018-May-08 13:30N 33°15' E 131°44'0 0.8
2018-May-08 13:00N 33°15' E 131°45'0 0.0
2018-May-08 12:30N 33°15' E 131°45'0 0.0
2018-May-08 11:57N 33°15' E 131°45'0 0.0
2018-May-08 11:30N 33°15' E 131°45'0 0.0
2018-May-08 10:57N 33°15' E 131°45'0 0.0
2018-May-08 10:30N 33°15' E 131°45'0 0.0
2018-May-08 10:00N 33°15' E 131°45'0 0.0
2018-May-08 09:30N 33°15' E 131°45'0 0.0
2018-May-08 08:57N 33°15' E 131°45'0 0.0
2018-May-08 08:21N 33°15' E 131°45'0 0.0
2018-May-08 07:57N 33°15' E 131°45'0 0.0
2018-May-08 07:30N 33°15' E 131°45'0 0.0
2018-May-08 07:00N 33°15' E 131°45'0 0.0
2018-May-08 06:30N 33°15' E 131°45'0 0.0
2018-May-08 06:00N 33°15' E 131°45'0 0.0
2018-May-08 05:27N 33°15' E 131°45'0 0.0
2018-May-08 05:00N 33°15' E 131°45'0 0.0
2018-May-08 04:30N 33°15' E 131°45'0 0.0
2018-May-08 04:00N 33°15' E 131°45'0 0.0
2018-May-08 03:30N 33°15' E 131°45'0 0.0
2018-May-08 03:00N 33°15' E 131°45'0 0.0
2018-May-08 02:30N 33°15' E 131°45'0 0.0
2018-May-08 02:00N 33°15' E 131°45'1 1.5
2018-May-08 01:30N 33°16' E 131°44'1 1.5
2018-May-08 01:00N 33°16' E 131°45'0 0.0
2018-May-08 00:29N 33°16' E 131°45'0 0.0
2018-May-07 23:53N 33°16' E 131°45'0 0.0
2018-May-07 23:26N 33°16' E 131°45'0 0.0
2018-May-07 22:59N 33°16' E 131°45'0 0.0
2018-May-07 22:29N 33°16' E 131°45'0 0.0
2018-May-07 21:58N 33°16' E 131°45'0 0.0
2018-May-07 21:29N 33°16' E 131°45'0 0.0
2018-May-07 20:56N 33°16' E 131°45'0 0.0
2018-May-07 20:29N 33°16' E 131°45'0 0.0
2018-May-07 19:59N 33°16' E 131°45'0 0.0
2018-May-07 19:23N 33°16' E 131°45'0 0.0
2018-May-07 18:55N 33°16' E 131°45'0 0.0
2018-May-07 18:26N 33°16' E 131°45'0 0.0
2018-May-07 17:56N 33°16' E 131°45'0 0.0
2018-May-07 17:26N 33°16' E 131°45'0 0.0
2018-May-07 16:59N 33°16' E 131°45'0 0.0
2018-May-07 16:29N 33°16' E 131°45'0 0.0
2018-May-07 15:50N 33°16' E 131°45'0 0.0
2018-May-07 15:29N 33°16' E 131°45'0 0.0
2018-May-07 14:55N 33°16' E 131°45'0 0.0
2018-May-07 14:25N 33°16' E 131°45'0 0.0
2018-May-07 13:59N 33°16' E 131°45'0 0.0
2018-May-07 13:28N 33°16' E 131°45'0 0.1
2018-May-07 12:56N 33°16' E 131°45'0 0.1
2018-May-07 12:25N 33°16' E 131°45'0 0.0
2018-May-07 11:59N 33°16' E 131°45'0 0.0
2018-May-07 11:29N 33°16' E 131°45'0 0.0
2018-May-07 10:59N 33°16' E 131°45'0 0.0
2018-May-07 10:29N 33°16' E 131°45'0 0.1
2018-May-07 09:49N 33°16' E 131°45'0 0.0
2018-May-07 09:29N 33°16' E 131°45'0 0.0
2018-May-07 08:55N 33°16' E 131°45'0 0.0
2018-May-07 08:25N 33°16' E 131°45'0 0.0
2018-May-07 07:58N 33°16' E 131°45'0 0.0
2018-May-07 07:25N 33°16' E 131°45'0 0.0
2018-May-07 06:58N 33°16' E 131°45'0 0.0
2018-May-07 06:20N 33°16' E 131°45'0 0.0
2018-May-07 05:55N 33°16' E 131°45'0 0.0
2018-May-07 05:26N 33°16' E 131°45'0 0.1
2018-May-07 04:55N 33°16' E 131°45'0 0.1
2018-May-07 04:26N 33°16' E 131°45'0 0.1
2018-May-07 03:55N 33°16' E 131°45'0 0.0
2018-May-07 03:28N 33°16' E 131°45'0 0.0
2018-May-07 02:55N 33°16' E 131°45'0 0.0
2018-May-07 02:28N 33°16' E 131°45'0 0.0
2018-May-07 01:58N 33°16' E 131°45'0 0.0
2018-May-07 01:25N 33°16' E 131°45'0 0.0
2018-May-07 00:53N 33°16' E 131°45'0 0.0
2018-May-07 00:28N 33°16' E 131°45'0 0.0
2018-May-06 23:59N 33°16' E 131°45'0 0.0
2018-May-06 23:25N 33°16' E 131°45'0 0.1
2018-May-06 22:58N 33°16' E 131°45'0 0.0
2018-May-06 22:28N 33°16' E 131°45'0 0.0
2018-May-06 21:56N 33°16' E 131°45'0 0.0
2018-May-06 21:28N 33°16' E 131°45'0 0.0
2018-May-06 20:58N 33°16' E 131°45'0 0.0
2018-May-06 20:28N 33°16' E 131°45'0 0.0
2018-May-06 19:46N 33°16' E 131°45'0 0.0
2018-May-06 19:28N 33°16' E 131°45'0 0.0
2018-May-06 18:58N 33°16' E 131°45'0 0.0
2018-May-06 18:28N 33°16' E 131°45'0 0.0
2018-May-06 17:58N 33°16' E 131°45'0 0.0
2018-May-06 17:25N 33°16' E 131°45'0 0.0
2018-May-06 16:58N 33°16' E 131°45'0 0.1
2018-May-06 16:25N 33°16' E 131°45'0 0.1
2018-May-06 15:58N 33°16' E 131°45'0 0.0
2018-May-06 15:28N 33°16' E 131°45'0 0.1
2018-May-06 14:55N 33°16' E 131°45'0 0.0
2018-May-06 14:28N 33°16' E 131°45'0 0.0
2018-May-06 13:55N 33°16' E 131°45'0 0.0
2018-May-06 13:28N 33°16' E 131°45'0 0.0
2018-May-06 12:58N 33°16' E 131°45'0 0.0
2018-May-06 12:25N 33°16' E 131°45'0 0.0
2018-May-06 11:58N 33°16' E 131°45'0 0.0
2018-May-06 11:25N 33°16' E 131°45'0 0.0
2018-May-06 10:55N 33°16' E 131°45'0 0.0
2018-May-06 10:13N 33°16' E 131°45'0 0.0
2018-May-06 09:55N 33°16' E 131°45'0 0.0
2018-May-06 09:28N 33°16' E 131°45'0 0.0
2018-May-06 08:55N 33°16' E 131°45'0 0.0
2018-May-06 08:25N 33°16' E 131°45'0 0.0
2018-May-06 07:55N 33°16' E 131°45'0 0.0
2018-May-06 07:25N 33°16' E 131°45'0 0.0
2018-May-06 06:49N 33°16' E 131°45'0 0.0
2018-May-06 06:22N 33°16' E 131°45'0 0.0
2018-May-06 05:55N 33°16' E 131°45'0 0.0
2018-May-06 05:25N 33°16' E 131°45'0 0.0
2018-May-06 04:58N 33°16' E 131°45'0 0.0
2018-May-06 04:28N 33°16' E 131°45'0 0.0
2018-May-06 03:55N 33°16' E 131°45'0 0.0
2018-May-06 03:25N 33°16' E 131°45'0 0.0
2018-May-06 02:55N 33°16' E 131°45'0 0.0
2018-May-06 02:28N 33°16' E 131°45'0 0.0
2018-May-06 01:55N 33°16' E 131°45'0 0.0
2018-May-06 01:28N 33°16' E 131°45'0 0.0
2018-May-06 00:55N 33°16' E 131°45'0 0.0
2018-May-06 00:28N 33°16' E 131°45'0 0.1
2018-May-05 23:58N 33°16' E 131°45'0 0.0
2018-May-05 23:28N 33°16' E 131°45'0 0.0
2018-May-05 22:58N 33°16' E 131°45'0 0.0
2018-May-05 22:28N 33°16' E 131°45'0 0.0
2018-May-05 21:55N 33°16' E 131°45'0 0.0
2018-May-05 21:25N 33°16' E 131°45'0 0.0
2018-May-05 20:58N 33°16' E 131°45'0 0.0
2018-May-05 20:28N 33°16' E 131°45'0 0.0
2018-May-05 19:55N 33°16' E 131°45'0 0.0
2018-May-05 19:28N 33°16' E 131°45'0 0.0
2018-May-05 18:58N 33°16' E 131°45'0 0.0
2018-May-05 18:28N 33°16' E 131°45'0 0.0
2018-May-05 17:58N 33°16' E 131°45'0 0.1
2018-May-05 17:28N 33°16' E 131°45'0 0.0
2018-May-05 16:55N 33°16' E 131°45'0 0.0
2018-May-05 16:04N 33°16' E 131°45'0 0.0
2018-May-05 15:55N 33°16' E 131°45'0 0.0
2018-May-05 15:28N 33°16' E 131°45'0 0.0
2018-May-05 14:58N 33°16' E 131°45'0 0.0
2018-May-05 14:28N 33°16' E 131°45'0 0.0
2018-May-05 13:55N 33°16' E 131°45'0 0.0
2018-May-05 13:22N 33°16' E 131°45'0 0.0
2018-May-05 12:58N 33°16' E 131°45'0 0.1
2018-May-05 12:30N 33°16' E 131°45'1 1.9
2018-May-05 11:58N 33°15' E 131°45'0 0.0
2018-May-05 11:28N 33°15' E 131°45'0 0.0
2018-May-05 10:58N 33°15' E 131°45'0 0.0
2018-May-05 10:22N 33°15' E 131°45'0 0.0
2018-May-05 09:58N 33°15' E 131°45'0 0.0
2018-May-05 09:28N 33°15' E 131°45'0 0.0
2018-May-05 08:58N 33°15' E 131°45'0 0.0
2018-May-05 08:22N 33°15' E 131°45'0 0.0
2018-May-05 07:52N 33°15' E 131°45'  

Dump ship's entire track history